Latest Weather Observations for Weipa

IDQ60801

Issued at 4:35 pm EST Wednesday 3 September 2014 (issued every 30 minutes, with the page automatically refreshed every 10 minutes)

About weather observations | Map of weather stations | Latest weather observations for QLD | Other Formats
Station Details ID: 027045 Name: WEIPA AERO Lat: -12.68 Lon: 141.92 Height: 17.96 m
Data from the previous 72 hours. | See also: Recent months at Weipa
Date/Time
EST
Temp
°C
App
Temp
°C
Dew
Point
Rel
Hum
%
Delta-T
°C
Wind Press
QNH
hPa
Press
MSL
hPa
Rain
since 9 am
mm
Dir
 
Spd
km/h
Gust
km/h
Spd
kts
Gust
kts
03/04:30pm 28.3 27.2 16.4 48 7.4 W 17 28 9 15 1010.4 - 0.0
03/04:00pm 29.0 27.7 14.8 42 8.6 W 15 26 8 14 1010.3 - 0.0
03/03:30pm 29.6 28.2 14.4 39 9.2 W 15 24 8 13 1010.5 - 0.0
03/03:00pm 29.6 27.5 13.7 37 9.5 W 17 26 9 14 1010.7 1010.6 0.0
03/02:30pm 30.5 28.8 14.7 38 9.6 WNW 17 30 9 16 1010.9 - 0.0
03/02:00pm 29.6 28.1 15.3 41 8.8 W 17 26 9 14 1011.1 - 0.0
03/01:30pm 31.9 29.0 8.1 22 13.2 SSW 13 20 7 11 1011.5 - 0.0
03/01:00pm 31.3 29.0 10.4 27 12.0 SSW 13 20 7 11 1011.8 - 0.0
03/12:30pm 31.1 29.4 11.3 29 11.5 SSW 11 22 6 12 1012.2 - 0.0
03/12:00pm 30.6 27.9 9.0 26 12.1 SE 13 22 7 12 1012.9 1012.8 0.0
03/11:30am 28.7 28.3 12.9 37 9.3 SE 7 17 4 9 1013.3 - 0.0
03/11:00am 27.3 27.0 14.3 45 7.8 SW 9 17 5 9 1013.9 - 0.0
03/10:30am 25.9 25.2 14.4 49 6.9 SSW 11 17 6 9 1014.2 - 0.0
03/10:00am 26.2 25.6 13.4 45 7.5 SE 9 19 5 10 1014.3 - 0.0
03/09:30am 25.5 25.1 14.1 49 6.8 ESE 9 15 5 8 1014.1 - 0.0
03/09:00am 23.8 24.3 15.0 57 5.3 SSE 6 15 3 8 1014.3 1014.2 0.0
03/08:30am 21.9 22.5 15.4 66 3.9 SSE 6 7 3 4 1014.3 - 0.0
03/08:00am 20.5 21.5 15.3 72 3.1 S 4 7 2 4 1014.0 - 0.0
03/07:30am 17.6 19.5 15.8 89 1.1 CALM 0 4 0 2 1013.9 - 0.0
03/07:00am 15.9 17.3 14.5 91 0.8 CALM 0 4 0 2 1013.7 - 0.0
03/06:30am 15.5 16.9 14.4 93 0.6 CALM 0 0 0 0 1013.3 - 0.0
03/06:00am 15.9 17.0 14.5 91 0.8 ESE 2 2 1 1 1012.8 1012.7 0.0
03/05:30am 16.1 17.2 14.7 91 0.8 E 2 2 1 1 1012.5 - 0.0
03/05:00am 16.4 17.6 15.0 91 0.8 ESE 2 2 1 1 1012.3 - 0.0
03/04:30am 16.9 18.3 15.3 90 0.9 SE 2 4 1 2 1012.4 - 0.0
03/04:00am 17.2 18.3 15.5 90 1.0 ESE 4 6 2 3 1012.5 - 0.0
03/03:30am 17.2 18.6 15.5 90 1.0 ESE 2 4 1 2 1012.5 - 0.0
03/03:00am 17.8 19.4 15.9 89 1.1 ESE 2 4 1 2 1012.7 1012.6 0.0
03/02:30am 18.1 19.0 16.1 88 1.2 ESE 6 6 3 3 1013.1 - 0.0
03/02:00am 18.3 20.1 16.4 89 1.1 SE 2 4 1 2 1013.4 - 0.0
03/01:30am 18.8 20.6 16.5 86 1.4 SE 2 2 1 1 1013.6 - 0.0
03/01:00am 19.2 21.5 16.7 85 1.5 CALM 0 2 0 1 1014.0 - 0.0
03/12:30am 19.5 21.9 16.9 85 1.6 CALM 0 2 0 1 1014.3 - 0.0
03/12:00am 20.7 22.3 17.0 79 2.3 SE 4 6 2 3 1014.6 1014.5 0.0
 
Date/Time
EST
Temp
°C
App
Temp
°C
Dew
Point
Rel
Hum
%
Delta-T
°C
Wind Press
QNH
hPa
Press
MSL
hPa
Rain
since 9 am
mm
Dir
 
Spd
km/h
Gust
km/h
Spd
kts
Gust
kts
02/11:30pm 20.5 22.9 18.0 85 1.5 ESE 2 4 1 2 1014.8 - 0.0
02/11:13pm 20.6 23.0 18.9 90 1.1 ESE 4 6 2 3 1014.7 - 0.0
02/11:00pm 21.0 23.9 19.0 88 1.3 E 2 2 1 1 1014.7 - 0.0
02/10:54pm 21.0 24.3 19.0 88 1.3 CALM 0 2 0 1 1014.7 - 0.0
02/10:30pm 21.6 24.4 19.6 88 1.3 SSE 4 6 2 3 1014.5 - 0.0
02/10:00pm 22.0 25.7 19.9 88 1.3 CALM 0 2 0 1 1014.6 - 0.0
02/09:30pm 22.2 25.1 19.8 86 1.5 NE 4 7 2 4 1014.4 - 0.0
02/09:00pm 23.0 26.3 19.9 83 2.0 E 2 4 1 2 1014.0 1013.9 0.0
02/08:30pm 23.4 26.8 20.2 82 2.1 E 2 6 1 3 1013.4 - 0.0
02/08:00pm 23.9 27.4 20.4 81 2.3 NE 2 2 1 1 1012.8 - 0.0
02/07:30pm 24.6 28.0 20.2 76 2.9 NNW 2 4 1 2 1012.2 - 0.0
02/07:00pm 25.3 28.9 20.5 75 3.1 W 2 4 1 2 1011.7 - 0.0
02/06:30pm 25.7 28.1 20.1 71 3.6 W 7 13 4 7 1011.3 - 0.0
02/06:00pm 26.9 29.2 19.8 65 4.6 W 7 17 4 9 1011.1 1011.0 0.0
02/05:30pm 28.0 29.8 19.5 60 5.5 WSW 9 15 5 8 1010.8 - 0.0
02/05:00pm 29.2 30.6 18.7 53 6.8 W 9 17 5 9 1010.6 - 0.0
02/04:30pm 30.3 31.0 18.0 47 7.9 W 11 24 6 13 1010.5 - 0.0
02/04:00pm 31.4 32.4 17.7 44 8.8 WSW 9 20 5 11 1010.4 - 0.0
02/03:30pm 34.1 32.2 9.1 21 14.2 ESE 9 19 5 10 1010.2 - 0.0
02/03:00pm 33.7 31.1 9.4 22 13.9 SE 13 22 7 12 1010.6 1010.5 0.0
02/02:30pm 33.7 30.4 9.6 22 13.8 SSE 17 32 9 17 1011.1 - 0.0
02/02:00pm 33.2 30.7 9.7 23 13.4 SE 13 22 7 12 1011.6 - 0.0
02/01:30pm 32.8 29.3 10.2 25 13.0 E 19 30 10 16 1012.1 - 0.0
02/01:00pm 32.7 30.2 10.9 26 12.7 SE 15 33 8 18 1012.9 - 0.0
02/12:30pm 31.5 29.0 12.2 30 11.4 ESE 17 32 9 17 1013.5 - 0.0
02/12:00pm 31.1 30.0 14.2 35 10.3 ESE 13 24 7 13 1013.9 1013.8 0.0
02/11:30am 29.4 28.1 15.7 43 8.5 ESE 17 28 9 15 1014.6 - 0.0
02/11:00am 28.1 27.1 16.6 49 7.2 E 17 26 9 14 1015.2 - 0.0
02/10:30am 27.3 26.6 17.3 54 6.3 ESE 17 28 9 15 1015.4 - 0.0
02/10:00am 26.2 25.2 17.6 59 5.4 E 19 26 10 14 1015.7 - 0.0
02/09:30am 25.3 24.4 17.8 63 4.7 ESE 19 26 10 14 1015.7 - 0.0
02/09:00am 24.5 23.5 18.0 67 4.1 ESE 20 26 11 14 1015.8 1015.7 0.0
02/08:30am 22.5 23.3 18.1 76 2.7 SE 11 19 6 10 1015.8 - 0.0
02/08:00am 21.2 22.3 18.1 82 1.9 SSE 9 17 5 9 1015.6 - 0.0
02/07:30am 19.9 21.4 18.1 89 1.1 S 7 11 4 6 1015.4 - 0.0
02/07:00am 18.8 20.4 17.8 94 0.6 S 6 7 3 4 1015.0 - 0.0
02/06:30am 18.8 20.7 17.7 93 0.7 SSE 4 6 2 3 1014.4 - 0.0
02/06:00am 18.9 20.5 17.8 93 0.7 SSE 6 7 3 4 1014.0 1013.9 0.0
02/05:30am 18.8 20.3 17.6 93 0.7 SSE 6 7 3 4 1013.9 - 0.0
02/05:00am 18.8 20.3 17.6 93 0.7 S 6 7 3 4 1013.8 - 0.0
02/04:30am 18.9 20.4 17.6 92 0.8 SSE 6 7 3 4 1013.8 - 0.0
02/04:00am 18.8 20.9 17.3 91 0.9 SSE 2 4 1 2 1013.7 - 0.0
02/03:30am 19.0 21.4 17.1 89 1.2 CALM 0 0 0 0 1013.8 - 0.0
02/03:00am 19.3 21.4 17.2 88 1.3 SE 2 4 1 2 1013.9 1013.8 0.0
02/02:30am 19.7 21.4 17.2 85 1.5 ESE 4 4 2 2 1014.0 - 0.0
02/02:00am 19.9 22.5 17.4 85 1.5 CALM 0 0 0 0 1014.1 - 0.0
02/01:30am 20.6 22.4 17.5 82 1.9 SSE 4 6 2 3 1014.2 - 0.0
02/01:00am 20.9 23.2 17.6 81 2.0 S 2 4 1 2 1014.3 - 0.0
02/12:30am 21.7 24.0 17.6 77 2.5 ESE 2 4 1 2 1014.7 - 0.0
02/12:00am 22.5 24.0 17.6 74 3.0 E 6 9 3 5 1014.9 1014.8 0.0
 
Date/Time
EST
Temp
°C
App
Temp
°C
Dew
Point
Rel
Hum
%
Delta-T
°C
Wind Press
QNH
hPa
Press
MSL
hPa
Rain
since 9 am
mm
Dir
 
Spd
km/h
Gust
km/h
Spd
kts
Gust
kts
01/11:30pm 22.7 24.1 17.4 72 3.3 E 6 11 3 6 1014.9 - 0.0
01/11:00pm 23.3 24.5 17.3 69 3.7 E 7 11 4 6 1015.0 - 0.0
01/10:30pm 23.9 24.6 17.0 65 4.3 E 9 19 5 10 1014.9 - 0.0
01/10:00pm 24.6 25.2 16.9 62 4.8 E 9 15 5 8 1014.9 - 0.0
01/09:30pm 25.3 23.9 16.5 58 5.4 E 19 30 10 16 1014.6 - 0.0
01/09:00pm 26.1 26.0 16.0 53 6.2 E 11 15 6 8 1014.5 1014.4 0.0
01/08:30pm 26.8 25.7 15.4 49 6.9 E 15 24 8 13 1013.9 - 0.0
01/08:00pm 27.3 27.0 16.5 51 6.7 ENE 13 20 7 11 1013.3 - 0.0
01/07:30pm 25.9 28.8 19.9 69 3.9 NNE 4 17 2 9 1012.9 - 0.0
01/07:00pm 26.0 29.2 20.4 71 3.7 W 4 6 2 3 1012.1 - 0.0
01/06:30pm 26.9 30.0 20.3 67 4.3 W 4 7 2 4 1011.7 - 0.0
01/06:00pm 27.9 29.7 19.5 60 5.5 W 9 13 5 7 1011.2 1011.1 0.0
01/05:30pm 29.0 31.0 19.1 55 6.4 WSW 7 13 4 7 1010.9 - 0.0
01/05:00pm 29.5 31.0 18.8 52 6.9 W 9 19 5 10 1010.6 - 0.0
01/04:30pm 31.1 31.6 17.4 44 8.7 W 11 22 6 12 1010.3 - 0.0
01/04:00pm 31.5 31.2 16.5 40 9.4 W 13 20 7 11 1010.2 - 0.0
01/03:30pm 31.1 31.0 17.8 45 8.5 WNW 15 24 8 13 1010.3 - 0.0
01/03:00pm 32.8 32.2 14.5 33 11.2 SE 11 20 6 11 1010.4 1010.3 0.0
01/02:30pm 31.2 30.9 14.5 36 10.2 SE 9 17 5 9 1010.9 - 0.0
01/02:00pm 32.4 32.0 14.1 33 11.1 SSE 9 17 5 9 1011.5 - 0.0
01/01:30pm 32.3 31.7 14.7 34 10.8 SSE 11 22 6 12 1011.9 - 0.0
01/01:00pm 31.1 30.2 14.9 37 9.9 SSE 13 26 7 14 1012.3 - 0.0
01/12:30pm 30.3 29.6 15.3 40 9.2 SSE 13 22 7 12 1012.9 - 0.0
01/12:00pm 30.8 30.2 15.6 39 9.4 ESE 13 26 7 14 1013.5 1013.4 0.0
01/11:30am 29.9 29.3 15.7 42 8.8 ESE 13 24 7 13 1014.0 - 0.0
01/11:00am 29.2 27.5 15.7 44 8.3 E 19 24 10 13 1014.3 - 0.0
01/10:30am 28.5 27.0 16.4 48 7.5 E 19 22 10 12 1014.7 - 0.0
01/10:00am 27.4 26.1 16.7 52 6.7 ESE 19 24 10 13 1014.8 - 0.0
01/09:30am 25.6 24.4 17.4 60 5.1 ESE 20 32 11 17 1014.9 - 0.0
01/09:00am 24.9 24.0 17.7 64 4.5 ESE 19 26 10 14 1014.9 1014.8 0.0
01/08:30am 23.4 23.3 17.9 71 3.4 ESE 15 20 8 11 1014.8 - 0.0
01/08:00am 21.8 23.3 18.0 79 2.4 SE 7 15 4 8 1014.5 - 0.0
01/07:30am 20.3 21.9 17.9 86 1.5 SSE 6 9 3 5 1014.4 - 0.0
01/07:00am 19.2 21.1 17.7 91 0.9 SSE 4 7 2 4 1014.3 - 0.0
01/06:30am 18.8 21.0 17.4 91 0.9 SE 2 6 1 3 1014.0 - 0.0
01/06:00am 19.0 21.2 17.5 91 0.9 SSE 2 4 1 2 1013.8 1013.7 0.0
01/05:30am 19.4 20.9 17.7 90 1.0 S 6 7 3 4 1013.7 - 0.0
01/05:00am 19.1 21.0 17.7 92 0.9 S 4 6 2 3 1013.5 - 0.0
01/04:30am 18.4 20.0 16.9 91 0.9 S 4 6 2 3 1013.3 - 0.0
01/04:00am 18.5 20.8 16.7 89 1.1 CALM 0 0 0 0 1013.2 - 0.0
01/03:30am 18.7 21.0 16.8 89 1.1 CALM 0 0 0 0 1013.1 - 0.0
01/03:00am 19.0 21.4 17.1 89 1.2 CALM 0 2 0 1 1013.1 1013.0 0.0
01/02:30am 19.2 21.2 17.0 87 1.3 SSE 2 2 1 1 1013.1 - 0.0
01/02:00am 19.7 22.2 17.3 86 1.5 CALM 0 0 0 0 1013.1 - 0.0
01/01:30am 19.8 22.3 17.2 85 1.6 CALM 0 0 0 0 1013.3 - 0.0
01/01:00am 20.9 23.2 17.6 81 2.0 E 2 4 1 2 1013.5 - 0.0
01/12:30am 21.5 23.7 17.5 78 2.5 ESE 2 2 1 1 1013.7 - 0.0
01/12:00am 21.9 23.7 17.3 75 2.8 SE 4 6 2 3 1013.8 1013.7 0.0
 
Date/Time
EST
Temp
°C
App
Temp
°C
Dew
Point
Rel
Hum
%
Delta-T
°C
Wind Press
QNH
hPa
Press
MSL
hPa
Rain
since 9 am
mm
Dir
 
Spd
km/h
Gust
km/h
Spd
kts
Gust
kts
31/11:30pm 22.7 24.0 17.2 71 3.4 E 6 7 3 4 1013.9 - 0.0
31/11:00pm 23.2 23.8 16.8 67 3.9 ESE 9 13 5 7 1013.8 - 0.0
31/10:30pm 23.8 23.9 16.6 64 4.4 E 11 15 6 8 1013.7 - 0.0
31/10:00pm 24.4 23.9 16.0 59 5.1 E 13 22 7 12 1013.7 - 0.0
31/09:30pm 25.1 24.9 15.8 56 5.7 E 11 19 6 10 1013.4 - 0.0
31/09:00pm 25.1 25.7 16.7 59 5.2 E 9 15 5 8 1012.9 1012.8 0.0
31/08:30pm 24.5 26.7 19.2 72 3.4 ENE 6 7 3 4 1012.4 - 0.0
31/08:00pm 24.3 27.5 19.7 75 3.0 ENE 2 6 1 3 1011.9 - 0.0
31/07:30pm 24.9 28.1 19.7 73 3.4 NNW 2 6 1 3 1011.2 - 0.0
31/07:00pm 25.6 28.3 19.4 68 4.0 N 4 6 2 3 1010.7 - 0.0
31/06:30pm 26.1 28.8 19.5 67 4.3 W 4 7 2 4 1010.3 - 0.0
31/06:00pm 27.1 29.2 19.3 62 5.0 W 7 15 4 8 1010.0 1009.9 0.0
31/05:30pm 28.2 29.3 18.9 57 6.0 W 11 19 6 10 1009.7 - 0.0
31/05:00pm 29.0 29.9 18.5 53 6.7 W 11 19 6 10 1009.6 - 0.0

Other Formats:

Comma delimited format used in spreadsheet applications
http://www.bom.gov.au/fwo/IDQ60801/IDQ60801.94170.axf

JavaScript Object Notation format (JSON) in row-major order
http://www.bom.gov.au/fwo/IDQ60801/IDQ60801.94170.json